createdAt,value
2018-04-27T00:00:55.722Z,9.90
2018-04-27T00:05:58.673Z,9.90
2018-04-27T00:11:02.133Z,9.90
2018-04-27T00:16:04.957Z,9.90
2018-04-27T00:21:07.880Z,9.80
2018-04-27T00:26:11.210Z,9.80
2018-04-27T00:31:14.612Z,9.70
2018-04-27T00:36:17.393Z,9.70
2018-04-27T00:41:21.963Z,9.70
2018-04-27T00:46:25.822Z,9.60
2018-04-27T00:51:28.390Z,9.60
2018-04-27T00:56:31.344Z,9.60
2018-04-27T01:01:34.470Z,9.60
2018-04-27T01:06:37.287Z,9.50
2018-04-27T01:11:40.286Z,9.50
2018-04-27T01:16:43.228Z,9.50
2018-04-27T01:21:46.249Z,9.40
2018-04-27T01:26:49.663Z,9.40
2018-04-27T01:31:52.411Z,9.30
2018-04-27T01:36:56.698Z,9.20
2018-04-27T01:42:00.336Z,9.20
2018-04-27T01:47:03.865Z,9.20
2018-04-27T01:52:08.809Z,9.20
2018-04-27T01:57:11.504Z,9.10
2018-04-27T02:02:14.362Z,9.10
2018-04-27T02:07:16.895Z,9.10
2018-04-27T02:12:19.404Z,9.10
2018-04-27T02:17:22.828Z,9.00
2018-04-27T02:22:27.059Z,9.00
2018-04-27T02:27:29.901Z,8.90
2018-04-27T02:32:32.635Z,8.90
2018-04-27T02:37:35.721Z,8.80
2018-04-27T02:42:38.496Z,8.80
2018-04-27T02:47:42.041Z,8.80
2018-04-27T02:52:44.593Z,8.80
2018-04-27T02:57:47.110Z,8.70
2018-04-27T03:02:50.524Z,8.70
2018-04-27T03:07:54.149Z,8.60
2018-04-27T03:12:58.525Z,8.60
2018-04-27T03:18:01.132Z,8.50
2018-04-27T03:23:03.926Z,8.50
2018-04-27T03:28:06.713Z,8.50
2018-04-27T03:33:10.137Z,8.40
2018-04-27T03:38:13.123Z,8.40
2018-04-27T03:43:16.391Z,8.30
2018-04-27T03:48:19.282Z,8.30
2018-04-27T03:53:22.353Z,8.20
2018-04-27T03:58:25.149Z,8.20
2018-04-27T04:03:44.903Z,8.20
2018-04-27T04:08:47.447Z,8.10
2018-04-27T04:13:50.420Z,8.10
2018-04-27T04:18:53.308Z,8.00
2018-04-27T04:23:56.515Z,8.00
2018-04-27T04:29:00.228Z,8.00
2018-04-27T04:34:02.801Z,8.00
2018-04-27T04:39:05.501Z,7.90
2018-04-27T04:44:08.012Z,8.00
2018-04-27T04:49:11.687Z,8.00
2018-04-27T04:54:15.080Z,8.00
2018-04-27T04:59:17.685Z,8.00
2018-04-27T05:04:21.721Z,8.00
2018-04-27T05:09:25.838Z,8.00
2018-04-27T05:14:28.733Z,8.10
2018-04-27T05:19:31.264Z,8.10
2018-04-27T05:24:33.997Z,8.20
2018-04-27T05:29:37.377Z,8.30
2018-04-27T05:34:40.308Z,8.30
2018-04-27T05:39:43.087Z,8.30
2018-04-27T05:44:45.994Z,8.50
2018-04-27T05:49:49.669Z,8.60
2018-04-27T05:54:52.356Z,8.70
2018-04-27T05:59:54.880Z,8.80
2018-04-27T06:04:58.155Z,9.10
2018-04-27T06:10:03.632Z,9.30
2018-04-27T06:15:07.013Z,9.30
2018-04-27T06:25:17.825Z,10.00
2018-04-27T06:30:22.228Z,9.90
2018-04-27T06:35:25.487Z,10.10
2018-04-27T06:40:29.263Z,10.40
2018-04-27T06:45:32.890Z,11.00
2018-04-27T06:50:37.048Z,11.40
2018-04-27T06:55:39.880Z,11.40
2018-04-27T07:00:43.480Z,12.20
2018-04-27T07:05:46.033Z,12.20
2018-04-27T07:10:48.915Z,12.70
2018-04-27T07:15:51.732Z,13.10
2018-04-27T07:20:54.763Z,13.50
2018-04-27T07:25:58.382Z,14.00
2018-04-27T07:31:00.912Z,14.40
2018-04-27T07:36:03.828Z,14.70
2018-04-27T07:41:06.689Z,15.10
2018-04-27T07:46:10.085Z,15.50
2018-04-27T07:56:20.098Z,16.20
2018-04-27T08:01:23.269Z,16.40
2018-04-27T08:06:26.066Z,16.70
2018-04-27T08:11:30.301Z,17.00
2018-04-27T08:16:35.687Z,17.20
2018-04-27T08:21:40.089Z,17.50
2018-04-27T08:26:44.223Z,18.00
2018-04-27T08:31:49.493Z,18.30
2018-04-27T08:36:55.555Z,18.20
2018-04-27T08:41:58.246Z,18.50
2018-04-27T08:47:01.179Z,18.70
2018-04-27T08:52:03.842Z,18.90
2018-04-27T08:57:06.558Z,19.00
2018-04-27T09:02:09.958Z,19.20
2018-04-27T09:07:13.306Z,19.40
2018-04-27T09:12:17.032Z,19.60
2018-04-27T09:17:20.537Z,19.80
2018-04-27T09:22:25.215Z,20.00
2018-04-27T09:27:28.171Z,20.10
2018-04-27T09:37:37.995Z,20.30
2018-04-27T09:42:41.065Z,20.50
2018-04-27T09:47:44.615Z,20.60
2018-04-27T09:52:48.479Z,20.80
2018-04-27T09:57:51.487Z,20.80
2018-04-27T10:02:55.019Z,20.90
2018-04-27T10:07:57.879Z,21.00
2018-04-27T10:13:00.890Z,21.10
2018-04-27T10:18:04.474Z,21.20
2018-04-27T10:23:06.992Z,21.30
2018-04-27T10:28:09.957Z,21.50
2018-04-27T10:33:15.126Z,21.50
2018-04-27T10:38:18.034Z,21.60
2018-04-27T10:43:22.457Z,21.70
2018-04-27T10:48:25.610Z,21.90
2018-04-27T10:53:29.122Z,22.10
2018-04-27T10:58:33.607Z,22.20
2018-04-27T11:03:37.008Z,22.30
2018-04-27T11:08:40.904Z,22.40
2018-04-27T11:13:46.213Z,22.50
2018-04-27T11:18:54.100Z,22.50
2018-04-27T11:29:05.957Z,22.60
2018-04-27T11:34:09.221Z,22.70
2018-04-27T11:39:12.225Z,22.80
2018-04-27T11:44:14.955Z,22.90
2018-04-27T11:49:17.486Z,23.00
2018-04-27T11:54:20.554Z,23.20
2018-04-27T11:59:24.369Z,23.30
2018-04-27T12:04:27.073Z,23.40
2018-04-27T12:09:30.538Z,23.30
2018-04-27T12:14:33.543Z,23.40
2018-04-27T12:19:36.917Z,23.50
2018-04-27T12:24:39.441Z,23.70
2018-04-27T12:29:43.051Z,23.80
2018-04-27T12:34:46.415Z,23.80
2018-04-27T12:39:48.958Z,23.90
2018-04-27T12:44:52.937Z,24.00
2018-04-27T12:49:55.523Z,24.00
2018-04-27T12:54:58.150Z,24.00
2018-04-27T13:00:00.728Z,24.10
2018-04-27T13:05:08.094Z,24.10
2018-04-27T13:10:12.556Z,24.20
2018-04-27T13:15:15.104Z,24.30
2018-04-27T13:20:17.971Z,24.30
2018-04-27T13:25:21.122Z,24.40
2018-04-27T13:30:23.704Z,24.40
2018-04-27T13:35:26.847Z,24.40
2018-04-27T13:40:29.416Z,24.40
2018-04-27T13:45:32.824Z,24.50
2018-04-27T13:50:35.372Z,24.40
2018-04-27T13:55:38.607Z,24.40
2018-04-27T14:00:41.299Z,24.40
2018-04-27T14:05:44.715Z,24.40
2018-04-27T14:10:49.311Z,24.40
2018-04-27T14:15:52.478Z,24.30
2018-04-27T14:20:56.046Z,24.30
2018-04-27T14:25:58.648Z,24.20
2018-04-27T14:36:10.769Z,24.20
2018-04-27T14:41:13.734Z,24.20
2018-04-27T14:46:17.299Z,24.20
2018-04-27T14:51:22.059Z,24.20
2018-04-27T14:56:25.674Z,24.10
2018-04-27T15:01:29.649Z,24.10
2018-04-27T15:06:35.316Z,24.10
2018-04-27T15:11:37.877Z,24.00
2018-04-27T15:16:40.582Z,24.00
2018-04-27T15:21:46.947Z,24.00
2018-04-27T15:26:49.757Z,23.90
2018-04-27T15:31:54.400Z,24.00
2018-04-27T15:36:57.189Z,23.80
2018-04-27T15:41:59.902Z,23.80
2018-04-27T15:47:02.797Z,23.70
2018-04-27T15:52:05.655Z,23.70
2018-04-27T15:57:08.563Z,23.60
2018-04-27T16:02:11.778Z,23.50
2018-04-27T16:07:16.760Z,23.40
2018-04-27T16:12:19.344Z,23.40
2018-04-27T16:17:22.922Z,23.40
2018-04-27T16:22:28.108Z,23.30
2018-04-27T16:27:31.576Z,23.20
2018-04-27T16:32:34.146Z,23.20
2018-04-27T16:37:36.745Z,23.20
2018-04-27T16:42:42.711Z,23.20
2018-04-27T16:52:53.230Z,23.00
2018-04-27T16:57:58.171Z,23.00
2018-04-27T17:03:01.890Z,22.80
2018-04-27T17:08:05.011Z,22.80
2018-04-27T17:18:15.172Z,22.60
2018-04-27T17:23:20.062Z,22.50
2018-04-27T17:28:26.497Z,22.40
2018-04-27T17:33:32.551Z,22.30
2018-04-27T17:38:37.848Z,22.20
2018-04-27T17:43:41.885Z,22.00
2018-04-27T17:48:44.445Z,21.90
2018-04-27T17:53:48.899Z,21.80
2018-04-27T17:58:51.813Z,21.70
2018-04-27T18:03:55.608Z,21.50
2018-04-27T18:09:02.112Z,21.40
2018-04-27T18:14:05.262Z,21.20
2018-04-27T18:19:13.185Z,21.10
2018-04-27T18:24:16.145Z,21.00
2018-04-27T18:29:19.143Z,20.80
2018-04-27T18:34:21.998Z,20.60
2018-04-27T18:39:25.037Z,20.50
2018-04-27T18:44:28.078Z,20.40
2018-04-27T18:49:30.708Z,20.20
2018-04-27T18:54:35.103Z,20.00
2018-04-27T18:59:53.326Z,19.90
2018-04-27T19:04:57.812Z,19.60
2018-04-27T19:10:00.775Z,19.40
2018-04-27T19:15:03.527Z,19.30
2018-04-27T19:25:14.669Z,18.90
2018-04-27T19:30:20.955Z,18.70
2018-04-27T19:35:26.110Z,18.50
2018-04-27T19:40:29.204Z,18.40
2018-04-27T19:50:39.273Z,18.10
2018-04-27T20:00:49.991Z,17.70
2018-04-27T20:05:54.524Z,17.60
2018-04-27T20:11:00.163Z,17.60
2018-04-27T20:16:03.774Z,17.40
2018-04-27T20:21:08.223Z,17.30
2018-04-27T20:26:15.300Z,17.20
2018-04-27T20:31:20.041Z,17.10
2018-04-27T20:36:24.392Z,17.00
2018-04-27T20:41:29.473Z,16.90
2018-04-27T20:46:32.088Z,16.80
2018-04-27T20:51:36.784Z,16.70
2018-04-27T21:01:52.170Z,16.50
2018-04-27T21:06:57.381Z,16.40
2018-04-27T21:12:01.784Z,16.40
2018-04-27T21:17:04.943Z,16.30
2018-04-27T21:22:08.532Z,16.30
2018-04-27T21:27:12.063Z,16.20
2018-04-27T21:32:16.253Z,16.10
2018-04-27T21:42:27.216Z,16.00
2018-04-27T21:47:35.678Z,15.90
2018-04-27T21:52:50.773Z,15.80
2018-04-27T21:57:58.520Z,15.70
2018-04-27T22:08:45.919Z,15.70
2018-04-27T22:13:48.874Z,15.60
2018-04-27T22:24:05.154Z,15.40
2018-04-27T22:34:28.677Z,15.30
2018-04-27T22:39:51.528Z,15.20
2018-04-27T22:45:01.844Z,15.10
2018-04-27T22:50:06.472Z,15.00
2018-04-27T22:55:12.748Z,14.90
2018-04-27T23:00:18.713Z,14.90
2018-04-27T23:05:35.367Z,14.80
2018-04-27T23:15:52.884Z,14.60
2018-04-27T23:20:56.356Z,14.50
2018-04-27T23:25:58.948Z,14.40
2018-04-27T23:31:06.499Z,14.40
2018-04-27T23:36:09.033Z,14.30
2018-04-27T23:41:11.675Z,14.20
2018-04-27T23:46:17.607Z,14.20
2018-04-27T23:51:21.680Z,14.10
2018-04-27T23:56:30.108Z,14.10
